Time;durP1;ratioP1;P1;durP2;ratioP2;P2;SDS_P1;SDS_P2;PMS_P1;PMS_P2;Temp;Humidity;BMP_temperature;BMP_pressure;BME280_temperature;BME280_humidity;BME280_pressure;Samples;Min_cycle;Max_cycle;Signal;HPM_P1;HPM_P2
2022/11/16 00:00:03;;;;;;;;;4.00;4.00;;;;;20.71;61.70;100487.23;105712;1297;18178;-66
2022/11/16 00:02:51;;;;;;;;;2.00;2.00;;;;;20.72;61.59;100486.36;105698;1278;19604;-63
2022/11/16 00:05:18;;;;;;;;;2.00;2.00;;;;;20.72;61.57;100479.82;105716;1280;22737;-64
2022/11/16 00:07:46;;;;;;;;;2.00;2.00;;;;;20.70;61.73;100469.62;105723;1272;18682;-65
2022/11/16 00:10:13;;;;;;;;;2.00;2.00;;;;;20.69;61.65;100468.64;105658;1279;20969;-65
2022/11/16 00:12:41;;;;;;;;;2.00;2.00;;;;;20.71;61.67;100475.56;105699;1288;18390;-66
2022/11/16 00:15:09;;;;;;;;;4.00;2.00;;;;;20.70;61.69;100469.45;105730;1296;18540;-65
2022/11/16 00:17:36;;;;;;;;;4.00;2.00;;;;;20.71;61.60;100465.44;105603;1272;148556;-64
2022/11/16 00:20:04;;;;;;;;;2.00;2.00;;;;;20.70;61.71;100456.95;105789;1297;18437;-65
2022/11/16 00:22:31;;;;;;;;;2.00;2.00;;;;;20.70;61.63;100458.80;105620;1294;18783;-65
2022/11/16 00:24:59;;;;;;;;;2.00;2.00;;;;;20.70;61.63;100462.05;105655;1289;20012;-64
2022/11/16 00:27:27;;;;;;;;;;;;;;;20.70;61.43;100458.80;105578;1287;22672;-64
2022/11/16 00:29:54;;;;;;;;;2.00;2.00;;;;;20.70;61.66;100453.14;105621;1279;18319;-65
2022/11/16 00:32:22;;;;;;;;;2.00;2.00;;;;;20.69;61.62;100453.59;105715;1297;20804;-65
2022/11/16 00:34:50;;;;;;;;;2.00;2.00;;;;;20.70;61.22;100453.02;105817;1288;19785;-64
2022/11/16 00:37:17;;;;;;;;;4.00;2.00;;;;;20.70;61.57;100457.55;105678;1301;18891;-65
2022/11/16 00:39:45;;;;;;;;;2.00;2.00;;;;;20.69;61.50;100454.83;105687;1296;19338;-66
2022/11/16 00:42:12;;;;;;;;;2.00;2.00;;;;;20.70;61.22;100462.61;105774;1279;18382;-66
2022/11/16 00:44:40;;;;;;;;;2.00;2.00;;;;;20.67;61.53;100456.40;105681;1279;18648;-65
2022/11/16 00:47:08;;;;;;;;;2.00;2.00;;;;;20.68;61.45;100460.10;105670;1279;19427;-66
2022/11/16 00:49:37;;;;;;;;;2.00;2.00;;;;;20.68;61.55;100455.16;105704;1272;18400;-65
2022/11/16 00:52:04;;;;;;;;;2.00;2.00;;;;;20.68;61.36;100453.23;105707;1295;20668;-65
2022/11/16 00:54:32;;;;;;;;;2.00;2.00;;;;;20.69;61.34;100452.02;105773;1287;22942;-66
2022/11/16 00:57:00;;;;;;;;;2.00;2.00;;;;;20.68;61.61;100451.80;105733;1300;18663;-65
2022/11/16 00:59:28;;;;;;;;;2.00;2.00;;;;;20.68;61.41;100456.29;105735;1279;18577;-66
2022/11/16 01:01:55;;;;;;;;;2.00;2.00;;;;;20.67;61.32;100450.40;105703;1295;19326;-66
2022/11/16 01:04:23;;;;;;;;;2.00;2.00;;;;;20.68;61.34;100455.77;105751;1289;18470;-66
2022/11/16 01:06:51;;;;;;;;;1.00;1.00;;;;;20.67;61.31;100460.34;105689;1272;18532;-66
2022/11/16 01:09:18;;;;;;;;;2.00;2.00;;;;;20.67;61.31;100465.08;105763;1275;19282;-65
2022/11/16 01:14:42;;;;;;;;;2.00;1.00;;;;;20.67;61.27;100480.90;105212;1302;18998;-63
2022/11/16 01:17:10;;;;;;;;;1.00;1.00;;;;;20.66;61.33;100485.50;105170;1286;19620;-66
2022/11/16 01:19:38;;;;;;;;;;;;;;;20.66;61.33;100485.55;105190;1303;22876;-65
2022/11/16 01:22:05;;;;;;;;;2.00;2.00;;;;;20.67;61.48;100478.98;105257;1306;18403;-66
2022/11/16 01:24:33;;;;;;;;;2.00;1.00;;;;;20.67;61.35;100466.73;105286;1302;19325;-66
2022/11/16 01:27:00;;;;;;;;;;;;;;;20.66;61.46;100462.77;105251;1294;18420;-65
2022/11/16 01:29:28;;;;;;;;;2.00;2.00;;;;;20.66;61.33;100464.30;105197;1285;18345;-65
2022/11/16 01:31:56;;;;;;;;;1.00;1.00;;;;;20.65;61.20;100454.99;105159;1302;19610;-66
2022/11/16 01:34:23;;;;;;;;;1.00;1.00;;;;;20.65;61.42;100458.80;105195;1294;18428;-65
2022/11/16 01:36:51;;;;;;;;;2.00;2.00;;;;;20.64;61.18;100456.39;105245;1294;18619;-66
2022/11/16 01:39:19;;;;;;;;;1.00;1.00;;;;;20.64;61.23;100453.81;105181;1302;19688;-66
2022/11/16 01:41:46;;;;;;;;;2.00;2.00;;;;;20.65;61.15;100456.83;105215;1302;18539;-66
2022/11/16 01:44:14;;;;;;;;;2.00;2.00;;;;;20.65;61.23;100454.08;105199;1302;18568;-65
2022/11/16 01:46:41;;;;;;;;;1.00;1.00;;;;;20.65;61.26;100450.71;105203;1287;19579;-66
2022/11/16 01:49:09;;;;;;;;;1.00;1.00;;;;;20.65;61.21;100445.98;105346;1288;18335;-65
2022/11/16 01:51:37;;;;;;;;;1.00;1.00;;;;;20.64;61.20;100435.49;105651;1297;18499;-66
2022/11/16 01:54:04;;;;;;;;;2.00;2.00;;;;;20.65;61.26;100434.52;105525;1291;20744;-66
2022/11/16 01:56:32;;;;;;;;;2.00;2.00;;;;;20.65;61.22;100426.71;105578;1297;18419;-66
2022/11/16 01:59:00;;;;;;;;;2.00;2.00;;;;;20.64;61.31;100427.30;105570;1299;18649;-67
2022/11/16 02:01:27;;;;;;;;;2.00;2.00;;;;;20.64;61.04;100427.02;105480;1296;19473;-66
2022/11/16 02:03:55;;;;;;;;;2.00;2.00;;;;;20.65;61.09;100433.83;105543;1282;18408;-64
2022/11/16 02:06:22;;;;;;;;;2.00;2.00;;;;;20.64;61.25;100430.64;105495;1302;18553;-64
2022/11/16 02:11:35;;;;;;;;;2.00;2.00;;;;;20.65;61.02;100427.42;105534;1290;18425;-64
2022/11/16 02:14:02;;;;;;;;;2.00;2.00;;;;;20.64;61.09;100425.36;105497;1291;22659;-66
2022/11/16 02:16:29;;;;;;;;;1.00;1.00;;;;;20.64;61.06;100415.71;105537;1297;19248;-65
2022/11/16 02:18:57;;;;;;;;;2.00;2.00;;;;;20.64;60.94;100416.30;105649;1297;20383;-65
2022/11/16 02:21:24;;;;;;;;;2.00;1.00;;;;;20.65;61.06;100414.98;105662;1297;18537;-64
2022/11/16 02:23:51;;;;;;;;;1.50;1.50;;;;;20.64;61.19;100407.92;105602;1297;21767;-66
2022/11/16 02:26:19;;;;;;;;;1.00;1.00;;;;;20.64;61.16;100406.71;105530;1281;18421;-65
2022/11/16 02:28:46;;;;;;;;;1.00;1.00;;;;;20.64;61.10;100410.72;105521;1282;19881;-64
2022/11/16 02:31:13;;;;;;;;;2.00;2.00;;;;;20.63;61.13;100410.76;105683;1303;23364;-66
2022/11/16 02:33:41;;;;;;;;;1.00;1.00;;;;;20.64;61.03;100414.42;105728;1297;21879;-66
2022/11/16 02:36:08;;;;;;;;;2.00;2.00;;;;;20.64;61.05;100409.36;105740;1300;22629;-65
2022/11/16 02:38:35;;;;;;;;;1.00;1.00;;;;;20.64;60.98;100405.77;105739;1288;19304;-63
2022/11/16 02:41:03;;;;;;;;;1.00;1.00;;;;;20.64;61.10;100405.41;105728;1297;18390;-66
2022/11/16 02:43:30;;;;;;;;;1.00;1.00;;;;;20.64;61.15;100406.54;105730;1287;20031;-66
2022/11/16 02:45:57;;;;;;;;;2.00;2.00;;;;;20.63;60.95;100402.61;105737;1300;21929;-65
2022/11/16 02:48:25;;;;;;;;;4.00;2.00;;;;;20.63;60.97;100405.84;105727;1297;18410;-64
2022/11/16 02:50:52;;;;;;;;;;;;;;;20.63;61.04;100401.35;105727;1279;20030;-65
2022/11/16 02:53:19;;;;;;;;;1.00;1.00;;;;;20.63;61.09;100400.30;105697;1288;19250;-65
2022/11/16 02:55:47;;;;;;;;;1.00;1.00;;;;;20.62;60.97;100391.59;105754;1280;18643;-64
2022/11/16 02:58:14;;;;;;;;;2.00;1.50;;;;;20.63;60.96;100390.05;105688;1297;18487;-64
2022/11/16 03:00:42;;;;;;;;;2.00;2.00;;;;;20.63;60.98;100391.39;105678;1280;19313;-66
2022/11/16 03:03:09;;;;;;;;;2.00;2.00;;;;;20.63;61.11;100392.81;105745;1297;18401;-66
2022/11/16 03:05:37;;;;;;;;;2.00;2.00;;;;;20.62;60.93;100389.28;105688;1297;18580;-64
2022/11/16 03:08:04;;;;;;;;;2.00;2.00;;;;;20.61;60.97;100396.61;105701;1281;20720;-63
2022/11/16 03:13:17;;;;;;;;;2.00;2.00;;;;;20.62;60.73;100395.27;105702;1279;18528;-64
2022/11/16 03:15:44;;;;;;;;;;;;;;;20.62;60.91;100393.22;105723;1298;21810;-65
2022/11/16 03:18:12;;;;;;;;;2.00;2.00;;;;;20.63;60.89;100392.13;105745;1279;19696;-65
2022/11/16 03:20:39;;;;;;;;;2.00;2.00;;;;;20.63;60.91;100392.81;105717;1297;18531;-65
2022/11/16 03:23:06;;;;;;;;;1.00;1.00;;;;;20.62;60.88;100391.80;105710;1297;20994;-66
2022/11/16 03:25:34;;;;;;;;;2.00;2.00;;;;;20.61;60.83;100387.73;105755;1271;18367;-65
2022/11/16 03:28:01;;;;;;;;;2.00;2.00;;;;;20.62;61.03;100387.98;105757;1279;19979;-66
2022/11/16 03:30:28;;;;;;;;;3.00;1.50;;;;;20.63;60.71;100390.30;105803;1295;22743;-65
2022/11/16 03:32:55;;;;;;;;;1.00;1.00;;;;;20.62;60.68;100387.27;105740;1297;18280;-64
2022/11/16 03:35:23;;;;;;;;;2.00;2.00;;;;;20.62;60.78;100383.27;105736;1295;19957;-65
2022/11/16 03:37:50;;;;;;;;;;;;;;;20.62;60.90;100376.76;105737;1294;19331;-66
2022/11/16 03:40:17;;;;;;;;;;;;;;;20.62;60.67;100376.41;105732;1271;20054;-65
2022/11/16 03:42:45;;;;;;;;;2.00;2.00;;;;;20.62;60.90;100380.41;105738;1297;18264;-66
2022/11/16 03:45:12;;;;;;;;;1.00;1.00;;;;;20.61;60.86;100382.48;105766;1295;21524;-65
2022/11/16 03:47:39;;;;;;;;;1.50;1.50;;;;;20.62;60.71;100384.38;105723;1296;19742;-66
2022/11/16 03:50:07;;;;;;;;;2.00;2.00;;;;;20.60;60.67;100379.33;105735;1288;20232;-66
2022/11/16 03:52:34;;;;;;;;;2.00;2.00;;;;;20.61;60.72;100377.83;105747;1289;21330;-64
2022/11/16 03:55:01;;;;;;;;;2.00;2.00;;;;;20.61;60.62;100377.20;105694;1279;18376;-62
2022/11/16 03:57:29;;;;;;;;;1.00;1.00;;;;;20.61;60.66;100371.46;105758;1297;18546;-65
2022/11/16 03:59:56;;;;;;;;;1.00;1.00;;;;;20.61;60.67;100369.83;105695;1279;22735;-65
2022/11/16 04:02:23;;;;;;;;;1.00;1.00;;;;;20.61;60.81;100370.78;105740;1279;19662;-67
2022/11/16 04:24:12;;;;;;;;;2.00;2.00;;;;;20.60;60.73;100364.91;105735;1297;19309;-64
2022/11/16 04:29:24;;;;;;;;;2.00;2.00;;;;;20.60;60.74;100369.70;105712;1291;18811;-65
2022/11/16 04:40:06;;;;;;;;;2.00;2.00;;;;;20.58;60.63;100358.52;105732;1297;19532;-65
2022/11/16 04:42:34;;;;;;;;;1.50;1.50;;;;;20.58;60.47;100359.79;105765;1297;18470;-63
2022/11/16 04:47:46;;;;;;;;;1.00;1.00;;;;;20.59;60.71;100353.39;105720;1294;22640;-64
2022/11/16 04:50:13;;;;;;;;;2.00;2.00;;;;;20.58;60.87;100345.09;105725;1280;18392;-65
2022/11/16 04:52:41;;;;;;;;;1.00;1.00;;;;;20.59;60.66;100345.02;105735;1272;18719;-65
2022/11/16 04:55:08;;;;;;;;;2.00;2.00;;;;;20.59;60.51;100342.87;105681;1286;24117;-66
2022/11/16 04:57:36;;;;;;;;;1.00;1.00;;;;;20.58;60.43;100345.83;105737;1282;18279;-64
2022/11/16 05:00:03;;;;;;;;;1.00;1.00;;;;;20.58;60.51;100344.75;105704;1297;27578;-65
2022/11/16 05:02:30;;;;;;;;;1.00;1.00;;;;;20.58;60.49;100345.50;105668;1289;20768;-65
2022/11/16 05:04:58;;;;;;;;;2.00;2.00;;;;;20.58;60.56;100350.02;105710;1271;19446;-65
2022/11/16 05:07:25;;;;;;;;;2.00;1.00;;;;;20.59;60.55;100351.61;105740;1279;18654;-65
2022/11/16 05:09:52;;;;;;;;;2.00;2.00;;;;;20.59;60.72;100348.32;105729;1295;22693;-66
2022/11/16 05:12:20;;;;;;;;;1.00;1.00;;;;;20.59;60.48;100347.05;105776;1297;18549;-65
2022/11/16 05:14:47;;;;;;;;;1.00;1.00;;;;;20.58;60.59;100340.39;105746;1295;18544;-71
2022/11/16 05:17:14;;;;;;;;;1.50;1.00;;;;;20.59;60.45;100338.73;105678;1288;23498;-67
2022/11/16 05:22:27;;;;;;;;;1.50;1.50;;;;;20.58;60.46;100334.64;105679;1279;20483;-65
2022/11/16 05:24:54;;;;;;;;;1.00;1.00;;;;;20.57;60.45;100332.87;105716;1295;20832;-65
2022/11/16 05:27:22;;;;;;;;;1.00;1.00;;;;;20.57;60.45;100333.98;105728;1297;22705;-63
2022/11/16 05:29:49;;;;;;;;;2.00;2.00;;;;;20.57;60.45;100335.41;105690;1297;20559;-65
2022/11/16 05:32:16;;;;;;;;;1.00;1.00;;;;;20.58;60.44;100336.86;105676;1296;20781;-64
2022/11/16 05:34:44;;;;;;;;;1.00;1.00;;;;;20.58;60.35;100330.86;105708;1279;18408;-63
2022/11/16 05:37:11;;;;;;;;;1.00;1.00;;;;;20.58;60.56;100335.73;105659;1289;22838;-65
2022/11/16 05:39:38;;;;;;;;;1.00;1.00;;;;;20.57;60.55;100328.77;105716;1288;22793;-65
2022/11/16 05:42:06;;;;;;;;;2.00;1.00;;;;;20.58;60.40;100332.06;105705;1280;18545;-66
2022/11/16 05:44:33;;;;;;;;;1.00;1.00;;;;;20.58;60.53;100333.21;105733;1271;19990;-65
2022/11/16 05:47:00;;;;;;;;;2.00;2.00;;;;;20.57;60.45;100337.33;105761;1297;21903;-65
2022/11/16 05:49:28;;;;;;;;;1.00;1.00;;;;;20.58;60.54;100334.09;105697;1279;22215;-65
2022/11/16 05:51:55;;;;;;;;;2.00;2.00;;;;;20.57;60.34;100334.54;105707;1288;20076;-65
2022/11/16 05:54:23;;;;;;;;;1.00;1.00;;;;;20.57;60.31;100337.83;105715;1288;19434;-65
2022/11/16 05:56:51;;;;;;;;;2.00;1.00;;;;;20.55;60.46;100340.38;105691;1287;22263;-66
2022/11/16 05:59:18;;;;;;;;;2.00;1.00;;;;;20.58;60.28;100337.83;105638;1275;20015;-66
2022/11/16 06:01:45;;;;;;;;;1.50;1.50;;;;;20.62;60.50;100334.65;105633;1281;20770;-66
2022/11/16 06:04:12;;;;;;;;;1.00;1.00;;;;;20.62;60.53;100332.30;105702;1272;22731;-66
2022/11/16 06:06:40;;;;;;;;;1.00;1.00;;;;;20.62;60.88;100328.49;105755;1279;20072;-65
2022/11/16 06:09:08;;;;;;;;;2.00;1.00;;;;;20.61;61.09;100324.63;105686;1296;22219;-68
2022/11/16 06:11:37;;;;;;;;;2.00;1.00;;;;;20.61;61.13;100326.05;105655;1279;19661;-66
2022/11/16 06:14:04;;;;;;;;;2.00;2.00;;;;;20.62;61.27;100322.88;105726;1289;18376;-66
2022/11/16 06:16:31;;;;;;;;;7.00;7.00;;;;;20.64;61.35;100318.45;105640;1279;20826;-66
2022/11/16 06:18:58;;;;;;;;;37.00;36.00;;;;;20.67;61.45;100317.92;105739;1280;22473;-66
2022/11/16 06:21:26;;;;;;;;;;;;;;;20.70;61.60;100309.38;105712;1291;20271;-62
2022/11/16 06:23:53;;;;;;;;;93.00;71.00;;;;;20.70;61.93;100310.27;105715;1274;22715;-64
2022/11/16 06:26:21;;;;;;;;;81.50;64.50;;;;;20.71;61.87;100310.09;105630;1295;19289;-65
2022/11/16 06:28:48;;;;;;;;;75.00;57.00;;;;;20.71;62.05;100307.36;105697;1297;18629;-65
2022/11/16 06:31:15;;;;;;;;;65.00;50.00;;;;;20.70;62.18;100311.88;105716;1296;19293;-63
2022/11/16 06:33:43;;;;;;;;;43.00;40.00;;;;;20.69;62.57;100313.14;105729;1279;20009;-66
2022/11/16 06:36:10;;;;;;;;;;;;;;;20.66;62.37;100314.73;105706;1279;20049;-66
2022/11/16 06:38:37;;;;;;;;;28.00;26.50;;;;;20.64;62.75;100309.39;105709;1275;20947;-66
2022/11/16 06:41:05;;;;;;;;;25.00;23.00;;;;;20.63;62.86;100309.35;105695;1295;21833;-65
2022/11/16 06:43:32;;;;;;;;;18.00;18.00;;;;;20.61;62.62;100309.34;105705;1288;24168;-65
2022/11/16 06:45:59;;;;;;;;;16.00;16.00;;;;;20.60;62.49;100311.46;105751;1295;19341;-65
2022/11/16 06:48:27;;;;;;;;;16.00;12.00;;;;;20.58;62.58;100312.95;105764;1288;18651;-64
2022/11/16 06:50:54;;;;;;;;;18.00;14.00;;;;;20.60;62.58;100313.69;105718;1279;18609;-66
2022/11/16 06:53:21;;;;;;;;;15.00;14.00;;;;;20.58;62.47;100310.88;105700;1272;22846;-63
2022/11/16 06:55:48;;;;;;;;;12.00;12.00;;;;;20.61;62.30;100311.86;105655;1279;20052;-64
2022/11/16 06:58:16;;;;;;;;;12.00;12.00;;;;;20.67;62.23;100310.84;105756;1281;19850;-65
2022/11/16 07:00:43;;;;;;;;;11.00;11.00;;;;;20.70;62.29;100313.20;105742;1271;19227;-65
2022/11/16 07:03:11;;;;;;;;;10.00;9.50;;;;;20.69;62.19;100313.27;105685;1279;18707;-65
2022/11/16 07:05:38;;;;;;;;;9.00;9.00;;;;;20.69;62.14;100320.05;105737;1272;22366;-66
2022/11/16 07:08:05;;;;;;;;;11.00;11.00;;;;;20.67;62.29;100319.70;105716;1279;21511;-65
2022/11/16 07:10:32;;;;;;;;;8.50;8.00;;;;;20.66;62.34;100320.52;105720;1295;22764;-65
2022/11/16 07:13:00;;;;;;;;;11.00;8.00;;;;;20.65;62.20;100321.42;105646;1288;18725;-65
2022/11/16 07:15:27;;;;;;;;;7.00;7.00;;;;;20.64;61.95;100321.68;105716;1289;19280;-65
2022/11/16 07:17:54;;;;;;;;;9.50;8.00;;;;;20.64;62.01;100319.39;105698;1286;23811;-65
2022/11/16 07:20:22;;;;;;;;;8.00;8.00;;;;;20.63;61.92;100318.52;105730;1286;24086;-65
2022/11/16 07:22:50;;;;;;;;;8.00;8.00;;;;;20.63;61.91;100318.40;105606;1288;19363;-65
2022/11/16 07:25:17;;;;;;;;;8.00;7.00;;;;;20.63;62.01;100316.98;105668;1276;19654;-65
2022/11/16 07:27:44;;;;;;;;;7.00;5.00;;;;;20.64;61.93;100319.16;105727;1287;20587;-65
2022/11/16 07:30:12;;;;;;;;;7.00;7.00;;;;;20.65;61.95;100310.66;105641;1297;19561;-66
2022/11/16 07:32:39;;;;;;;;;7.00;7.00;;;;;20.67;62.03;100310.85;105657;1297;18621;-66
2022/11/16 07:35:06;;;;;;;;;5.00;5.00;;;;;20.68;61.97;100314.67;105671;1271;20226;-68
2022/11/16 07:37:34;;;;;;;;;5.00;5.00;;;;;20.68;62.07;100319.62;105642;1300;22361;-65
2022/11/16 07:40:01;;;;;;;;;4.00;4.00;;;;;20.67;62.01;100319.11;105644;1288;18322;-64
2022/11/16 07:42:28;;;;;;;;;4.50;4.50;;;;;20.67;61.90;100315.67;105725;1285;21541;-66
2022/11/16 07:44:56;;;;;;;;;5.00;5.00;;;;;20.66;61.88;100309.30;105661;1271;21528;-65
2022/11/16 07:47:23;;;;;;;;;5.00;5.00;;;;;20.66;61.98;100315.28;105678;1272;22340;-66
2022/11/16 07:49:50;;;;;;;;;5.00;5.00;;;;;20.67;61.92;100315.71;105700;1272;18519;-67
2022/11/16 07:52:18;;;;;;;;;5.00;5.00;;;;;20.68;61.63;100318.45;105695;1287;21206;-67
2022/11/16 07:54:45;;;;;;;;;5.00;5.00;;;;;20.69;61.72;100314.94;105715;1295;19674;-66
2022/11/16 07:57:12;;;;;;;;;5.00;5.00;;;;;20.68;61.64;100311.58;105671;1296;21623;-65
2022/11/16 07:59:40;;;;;;;;;4.00;4.00;;;;;20.67;61.82;100313.02;105660;1279;22248;-65
2022/11/16 08:02:07;;;;;;;;;2.00;2.00;;;;;20.67;61.86;100314.45;105643;1279;22176;-65
2022/11/16 08:04:34;;;;;;;;;4.00;4.00;;;;;20.67;61.68;100310.90;105679;1272;21487;-64
2022/11/16 08:07:02;;;;;;;;;4.00;4.00;;;;;20.66;61.70;100310.38;105693;1279;19321;-62
2022/11/16 08:09:29;;;;;;;;;4.00;2.00;;;;;20.66;61.77;100313.45;105728;1284;19784;-65
2022/11/16 08:11:56;;;;;;;;;3.00;3.00;;;;;20.67;61.80;100315.37;105675;1277;21549;-64
2022/11/16 08:14:23;;;;;;;;;4.00;4.00;;;;;20.66;61.71;100317.83;105698;1271;19201;-65
2022/11/16 08:16:51;;;;;;;;;5.00;5.00;;;;;20.67;61.68;100320.11;105640;1279;22791;-64
2022/11/16 08:19:18;;;;;;;;;2.00;2.00;;;;;20.66;61.50;100322.73;105700;1281;18540;-64
2022/11/16 08:21:45;;;;;;;;;5.00;4.00;;;;;20.63;61.71;100318.13;105712;1281;20958;-66
2022/11/16 08:24:13;;;;;;;;;2.00;2.00;;;;;20.61;61.66;100319.89;105663;1272;19865;-65
2022/11/16 08:26:40;;;;;;;;;2.00;2.00;;;;;20.61;61.54;100315.70;105699;1274;18564;-65
2022/11/16 08:29:07;;;;;;;;;4.00;2.00;;;;;20.63;61.53;100312.95;105707;1281;19361;-66
2022/11/16 08:31:35;;;;;;;;;2.00;2.00;;;;;20.64;61.70;100312.11;105720;1271;22505;-64
2022/11/16 08:34:02;;;;;;;;;3.00;2.00;;;;;20.63;61.84;100304.17;105722;1292;18582;-65
2022/11/16 08:36:29;;;;;;;;;1.50;1.50;;;;;20.64;62.24;100311.90;105747;1297;19588;-66
2022/11/16 08:38:57;;;;;;;;;4.00;2.00;;;;;20.64;62.24;100317.68;105750;1287;20836;-66
2022/11/16 08:41:24;;;;;;;;;2.00;2.00;;;;;20.64;61.97;100325.17;105658;1297;18401;-66
2022/11/16 08:43:52;;;;;;;;;2.00;2.00;;;;;20.65;61.99;100326.50;105714;1297;19294;-65
2022/11/16 08:46:20;;;;;;;;;2.00;2.00;;;;;20.65;61.90;100326.54;105682;1279;18544;-66
2022/11/16 08:48:47;;;;;;;;;1.00;1.00;;;;;20.63;61.95;100336.35;105700;1286;19024;-66
2022/11/16 08:51:14;;;;;;;;;2.00;2.00;;;;;20.63;61.88;100336.75;105646;1294;19277;-65
2022/11/16 08:53:42;;;;;;;;;4.00;4.00;;;;;20.62;61.89;100340.27;105703;1278;18410;-65
2022/11/16 08:56:10;;;;;;;;;2.00;2.00;;;;;20.63;62.01;100341.08;105684;1271;18596;-66
2022/11/16 08:58:38;;;;;;;;;4.00;2.00;;;;;20.63;61.78;100345.48;105660;1297;21480;-67
2022/11/16 09:01:05;;;;;;;;;1.50;1.50;;;;;20.63;61.89;100343.46;105664;1271;18386;-66
2022/11/16 09:03:32;;;;;;;;;2.00;2.00;;;;;20.62;61.66;100344.79;105677;1279;22166;-66
2022/11/16 09:06:00;;;;;;;;;1.00;1.00;;;;;20.62;61.68;100344.24;105689;1279;19283;-65
2022/11/16 09:08:27;;;;;;;;;1.50;1.50;;;;;20.63;61.44;100344.77;105669;1297;19586;-67
2022/11/16 09:10:54;;;;;;;;;2.00;2.00;;;;;20.62;61.73;100339.92;105675;1295;19974;-66
2022/11/16 09:13:21;;;;;;;;;2.00;1.00;;;;;20.61;61.62;100337.45;105693;1295;19290;-66
2022/11/16 09:15:49;;;;;;;;;1.00;1.00;;;;;20.61;61.42;100338.95;105728;1297;19425;-66
2022/11/16 09:18:16;;;;;;;;;2.00;2.00;;;;;20.61;61.39;100343.48;105654;1282;22999;-66
2022/11/16 09:20:44;;;;;;;;;2.00;2.00;;;;;20.61;61.49;100337.91;105697;1279;20871;-66
2022/11/16 09:23:11;;;;;;;;;1.00;1.00;;;;;20.60;61.34;100333.16;105688;1287;19697;-66
2022/11/16 09:25:38;;;;;;;;;1.00;1.00;;;;;20.60;61.34;100334.75;105738;1297;18551;-66
2022/11/16 09:28:06;;;;;;;;;1.00;1.00;;;;;20.60;61.36;100331.14;105649;1272;22974;-66
2022/11/16 09:30:33;;;;;;;;;1.00;1.00;;;;;20.60;61.08;100332.40;105718;1288;22174;-66
2022/11/16 09:33:01;;;;;;;;;1.00;1.00;;;;;20.59;61.16;100328.45;105683;1288;18537;-66
2022/11/16 09:35:28;;;;;;;;;1.00;1.00;;;;;20.59;61.09;100331.96;105650;1279;19439;-66
2022/11/16 09:37:55;;;;;;;;;1.00;1.00;;;;;20.59;61.37;100328.75;105688;1271;18499;-65
2022/11/16 09:40:23;;;;;;;;;1.00;1.00;;;;;20.59;61.11;100333.65;105672;1279;18950;-66
2022/11/16 09:42:50;;;;;;;;;1.00;1.00;;;;;20.58;61.10;100330.63;105634;1279;19257;-65
2022/11/16 09:45:17;;;;;;;;;11.00;9.00;;;;;20.60;60.97;100325.88;105651;1271;18463;-67
2022/11/16 09:47:45;;;;;;;;;31.00;28.00;;;;;20.62;60.58;100322.48;105625;1275;18633;-66
2022/11/16 09:50:12;;;;;;;;;101.00;71.00;;;;;20.64;60.35;100321.88;105639;1287;20768;-69
2022/11/16 09:52:39;;;;;;;;;98.50;69.00;;;;;20.63;60.30;100319.83;105662;1272;19315;-64
2022/11/16 09:55:07;;;;;;;;;80.00;61.00;;;;;20.61;60.47;100315.33;105624;1272;20017;-68
2022/11/16 09:57:34;;;;;;;;;82.00;60.50;;;;;20.61;60.38;100316.08;105652;1271;20603;-65
2022/11/16 10:00:02;;;;;;;;;;;;;;;20.62;60.44;100312.32;105627;1295;22380;-66
2022/11/16 10:02:32;;;;;;;;;65.50;50.00;;;;;20.62;60.56;100318.31;105644;1279;20162;-67
2022/11/16 10:04:59;;;;;;;;;65.00;50.00;;;;;20.63;60.39;100313.30;105627;1271;20895;-66
2022/11/16 10:07:27;;;;;;;;;58.00;43.00;;;;;20.65;60.63;100309.45;105624;1279;18546;-65
2022/11/16 10:09:54;;;;;;;;;57.00;40.00;;;;;20.66;60.36;100314.12;105700;1292;18639;-65
2022/11/16 10:12:21;;;;;;;;;38.00;29.00;;;;;20.64;60.42;100309.05;105688;1297;19483;-65
2022/11/16 10:14:49;;;;;;;;;35.00;30.00;;;;;20.58;59.68;100308.22;105702;1279;18519;-64
2022/11/16 10:17:16;;;;;;;;;23.00;21.00;;;;;20.52;58.95;100306.23;105727;1276;22079;-66
2022/11/16 10:19:44;;;;;;;;;26.00;21.00;;;;;20.47;58.10;100302.84;105717;1279;20853;-65
2022/11/16 10:22:11;;;;;;;;;21.00;18.50;;;;;20.43;56.98;100301.73;105711;1288;18519;-66
2022/11/16 10:24:38;;;;;;;;;15.00;14.00;;;;;20.38;55.75;100302.38;105692;1281;23300;-64
2022/11/16 10:27:06;;;;;;;;;15.00;15.00;;;;;20.39;55.52;100297.95;105658;1280;20860;-66
2022/11/16 10:29:33;;;;;;;;;13.00;12.00;;;;;20.48;55.69;100298.95;105698;1274;18795;-65
2022/11/16 10:32:00;;;;;;;;;11.00;11.00;;;;;20.51;55.64;100295.41;105715;1279;18634;-62
2022/11/16 10:34:28;;;;;;;;;;;;;;;20.56;55.60;100296.23;105679;1297;19328;-66
2022/11/16 10:36:55;;;;;;;;;12.00;11.00;;;;;20.57;55.75;100294.04;105741;1297;18563;-69
2022/11/16 10:39:22;;;;;;;;;12.00;11.00;;;;;20.57;56.17;100294.38;105735;1297;19305;-64
2022/11/16 10:41:50;;;;;;;;;9.00;8.00;;;;;20.59;56.43;100292.90;105693;1288;19237;-67
2022/11/16 10:44:17;;;;;;;;;8.50;8.50;;;;;20.63;56.53;100291.18;105710;1275;20093;-62
2022/11/16 10:46:45;;;;;;;;;9.00;9.00;;;;;20.65;56.67;100294.88;105677;1279;22235;-64
2022/11/16 10:49:12;;;;;;;;;8.00;7.00;;;;;20.63;56.79;100291.66;105697;1296;19436;-65
2022/11/16 10:51:39;;;;;;;;;8.00;6.00;;;;;20.60;57.01;100291.86;105752;1288;22826;-65
2022/11/16 10:54:06;;;;;;;;;7.00;7.00;;;;;20.61;57.18;100291.62;105704;1297;18546;-65
2022/11/16 10:56:36;;;;;;;;;7.00;7.00;;;;;20.61;57.23;100292.96;105666;1274;19319;-63
2022/11/16 10:59:03;;;;;;;;;7.00;5.00;;;;;20.61;57.07;100293.55;105654;1289;18507;-65
2022/11/16 11:01:30;;;;;;;;;7.00;7.00;;;;;20.60;57.29;100288.38;105597;1283;19984;-65
2022/11/16 11:04:00;;;;;;;;;7.00;7.00;;;;;20.58;57.38;100289.07;105724;1288;20860;-64
2022/11/16 11:06:27;;;;;;;;;8.00;8.00;;;;;20.56;57.67;100287.98;105679;1281;18777;-64
2022/11/16 11:08:54;;;;;;;;;7.00;5.00;;;;;20.57;57.67;100285.33;105709;1289;18415;-63
2022/11/16 11:14:07;;;;;;;;;4.00;4.00;;;;;20.55;57.72;100288.27;105677;1297;18580;-64
2022/11/16 11:16:34;;;;;;;;;5.00;5.00;;;;;20.55;57.73;100288.89;105731;1279;20079;-65
2022/11/16 11:19:02;;;;;;;;;4.00;4.00;;;;;20.55;57.75;100287.76;105710;1274;19300;-65
2022/11/16 11:21:29;;;;;;;;;7.50;6.00;;;;;20.55;57.61;100289.73;105749;1290;19751;-65
2022/11/16 11:23:58;;;;;;;;;4.00;4.00;;;;;20.55;57.91;100290.14;105714;1279;20034;-65
2022/11/16 11:26:25;;;;;;;;;4.00;2.00;;;;;20.55;57.72;100289.56;105638;1297;19477;-65
2022/11/16 11:28:52;;;;;;;;;4.00;4.00;;;;;20.54;57.81;100288.76;105641;1297;20847;-65
2022/11/16 11:31:24;;;;;;;;;4.00;2.00;;;;;20.54;58.00;100289.88;105714;1287;20338;-64
2022/11/16 11:33:52;;;;;;;;;4.00;4.00;;;;;20.54;57.83;100290.09;105799;1297;20889;-65
2022/11/16 11:36:19;;;;;;;;;4.00;2.00;;;;;20.53;57.71;100292.69;105735;1297;18416;-65
2022/11/16 11:38:46;;;;;;;;;3.00;2.00;;;;;20.53;57.78;100295.91;105707;1295;20263;-64
2022/11/16 11:41:13;;;;;;;;;4.00;2.00;;;;;20.53;57.82;100294.20;105713;1287;19371;-64
2022/11/16 11:43:41;;;;;;;;;2.00;2.00;;;;;20.53;58.01;100290.34;105710;1288;18384;-63
2022/11/16 11:46:08;;;;;;;;;2.00;2.00;;;;;20.54;57.73;100291.90;105719;1289;20023;-63
2022/11/16 11:48:35;;;;;;;;;3.00;3.00;;;;;20.53;57.81;100294.15;105728;1287;24558;-62
2022/11/16 11:51:03;;;;;;;;;4.00;2.00;;;;;20.52;57.90;100295.48;105710;1297;18412;-63
2022/11/16 11:53:30;;;;;;;;;4.00;2.00;;;;;20.53;57.77;100296.13;105717;1279;20548;-63
2022/11/16 11:55:57;;;;;;;;;4.00;4.00;;;;;20.53;57.67;100298.17;105718;1298;19196;-63
2022/11/16 11:58:25;;;;;;;;;2.00;2.00;;;;;20.52;57.73;100299.13;105668;1272;18411;-64
2022/11/16 12:00:52;;;;;;;;;3.00;2.00;;;;;20.52;57.73;100300.05;105706;1279;23202;-62
2022/11/16 12:03:19;;;;;;;;;4.00;2.00;;;;;20.52;57.83;100300.08;105694;1282;19540;-64